sensor_id;sensor_type;location;lat;lon;timestamp;temperature;humidity
16064;DHT22;8136;53.172;8.256;2023-02-18T00:02:03;7.20;99.90
16064;DHT22;8136;53.172;8.256;2023-02-18T00:04:31;7.20;99.90
16064;DHT22;8136;53.172;8.256;2023-02-18T00:06:58;7.30;99.90
16064;DHT22;8136;53.172;8.256;2023-02-18T00:09:25;7.20;99.90
16064;DHT22;8136;53.172;8.256;2023-02-18T00:11:52;7.20;99.90
16064;DHT22;8136;53.172;8.256;2023-02-18T00:14:19;7.20;99.90
16064;DHT22;8136;53.172;8.256;2023-02-18T00:16:47;7.20;99.90
16064;DHT22;8136;53.172;8.256;2023-02-18T00:19:16;7.30;99.90
16064;DHT22;8136;53.172;8.256;2023-02-18T00:21:44;7.30;99.90
16064;DHT22;8136;53.172;8.256;2023-02-18T00:24:12;7.30;99.90
16064;DHT22;8136;53.172;8.256;2023-02-18T00:26:41;7.30;99.90
16064;DHT22;8136;53.172;8.256;2023-02-18T00:29:07;7.40;99.90
16064;DHT22;8136;53.172;8.256;2023-02-18T00:31:35;7.40;99.90
16064;DHT22;8136;53.172;8.256;2023-02-18T00:34:04;7.40;99.90
16064;DHT22;8136;53.172;8.256;2023-02-18T00:36:32;7.40;99.90
16064;DHT22;8136;53.172;8.256;2023-02-18T00:39:01;7.40;99.90
16064;DHT22;8136;53.172;8.256;2023-02-18T00:41:28;7.40;99.90
16064;DHT22;8136;53.172;8.256;2023-02-18T00:43:56;7.40;99.90
16064;DHT22;8136;53.172;8.256;2023-02-18T00:46:23;7.40;99.90
16064;DHT22;8136;53.172;8.256;2023-02-18T00:48:51;7.40;99.90
16064;DHT22;8136;53.172;8.256;2023-02-18T00:51:19;7.50;99.90
16064;DHT22;8136;53.172;8.256;2023-02-18T00:53:46;7.50;99.90
16064;DHT22;8136;53.172;8.256;2023-02-18T00:56:13;7.50;99.90
16064;DHT22;8136;53.172;8.256;2023-02-18T00:58:40;7.50;99.90
16064;DHT22;8136;53.172;8.256;2023-02-18T01:01:08;7.50;99.90
16064;DHT22;8136;53.172;8.256;2023-02-18T01:03:36;7.50;99.90
16064;DHT22;8136;53.172;8.256;2023-02-18T01:06:03;7.50;99.90
16064;DHT22;8136;53.172;8.256;2023-02-18T01:08:32;7.60;99.90
16064;DHT22;8136;53.172;8.256;2023-02-18T01:10:59;7.60;99.90
16064;DHT22;8136;53.172;8.256;2023-02-18T01:13:27;7.60;99.90
16064;DHT22;8136;53.172;8.256;2023-02-18T01:15:54;7.60;99.90
16064;DHT22;8136;53.172;8.256;2023-02-18T01:18:21;7.60;99.90
16064;DHT22;8136;53.172;8.256;2023-02-18T01:20:48;7.60;99.90
16064;DHT22;8136;53.172;8.256;2023-02-18T01:23:15;7.60;99.90
16064;DHT22;8136;53.172;8.256;2023-02-18T01:25:44;7.60;99.90
16064;DHT22;8136;53.172;8.256;2023-02-18T01:28:12;7.60;99.90
16064;DHT22;8136;53.172;8.256;2023-02-18T01:30:39;7.60;99.90
16064;DHT22;8136;53.172;8.256;2023-02-18T01:33:06;7.60;99.90
16064;DHT22;8136;53.172;8.256;2023-02-18T01:35:33;7.60;99.90
16064;DHT22;8136;53.172;8.256;2023-02-18T01:38:02;7.70;99.90
16064;DHT22;8136;53.172;8.256;2023-02-18T01:40:29;7.70;99.90
16064;DHT22;8136;53.172;8.256;2023-02-18T01:42:57;7.70;99.90
16064;DHT22;8136;53.172;8.256;2023-02-18T01:45:55;7.80;99.90
16064;DHT22;8136;53.172;8.256;2023-02-18T01:48:28;7.70;99.90
16064;DHT22;8136;53.172;8.256;2023-02-18T01:50:59;7.70;99.90
16064;DHT22;8136;53.172;8.256;2023-02-18T01:53:28;7.70;99.90
16064;DHT22;8136;53.172;8.256;2023-02-18T01:55:57;7.70;99.90
16064;DHT22;8136;53.172;8.256;2023-02-18T01:58:25;7.60;99.90
16064;DHT22;8136;53.172;8.256;2023-02-18T02:00:52;7.70;99.90
16064;DHT22;8136;53.172;8.256;2023-02-18T02:03:19;7.70;99.90
16064;DHT22;8136;53.172;8.256;2023-02-18T02:05:46;7.70;99.90
16064;DHT22;8136;53.172;8.256;2023-02-18T02:08:13;7.70;99.90
16064;DHT22;8136;53.172;8.256;2023-02-18T02:10:55;7.70;99.90
16064;DHT22;8136;53.172;8.256;2023-02-18T02:13:31;7.70;99.90
16064;DHT22;8136;53.172;8.256;2023-02-18T02:16:06;7.70;99.90
16064;DHT22;8136;53.172;8.256;2023-02-18T02:18:42;7.70;99.90
16064;DHT22;8136;53.172;8.256;2023-02-18T02:27:20;7.80;99.90
16064;DHT22;8136;53.172;8.256;2023-02-18T02:30:26;7.70;99.90
16064;DHT22;8136;53.172;8.256;2023-02-18T02:33:15;7.80;99.90
16064;DHT22;8136;53.172;8.256;2023-02-18T02:35:53;7.80;99.90
16064;DHT22;8136;53.172;8.256;2023-02-18T02:38:28;7.80;99.90
16064;DHT22;8136;53.172;8.256;2023-02-18T02:41:00;7.80;99.90
16064;DHT22;8136;53.172;8.256;2023-02-18T02:43:34;7.80;99.90
16064;DHT22;8136;53.172;8.256;2023-02-18T02:46:08;7.80;99.90
16064;DHT22;8136;53.172;8.256;2023-02-18T02:48:40;7.90;99.90
16064;DHT22;8136;53.172;8.256;2023-02-18T02:51:12;7.90;99.90
16064;DHT22;8136;53.172;8.256;2023-02-18T02:53:41;7.80;99.90
16064;DHT22;8136;53.172;8.256;2023-02-18T02:56:13;7.80;99.90
16064;DHT22;8136;53.172;8.256;2023-02-18T02:58:40;7.90;99.90
16064;DHT22;8136;53.172;8.256;2023-02-18T03:01:23;7.90;99.90
16064;DHT22;8136;53.172;8.256;2023-02-18T03:04:27;7.90;99.90
16064;DHT22;8136;53.172;8.256;2023-02-18T03:09:33;7.80;99.90
16064;DHT22;8136;53.172;8.256;2023-02-18T03:12:09;7.80;99.90
16064;DHT22;8136;53.172;8.256;2023-02-18T03:14:43;7.80;99.90
16064;DHT22;8136;53.172;8.256;2023-02-18T03:17:20;7.80;99.90
16064;DHT22;8136;53.172;8.256;2023-02-18T03:19:52;7.80;99.90
16064;DHT22;8136;53.172;8.256;2023-02-18T03:22:24;7.90;99.90
16064;DHT22;8136;53.172;8.256;2023-02-18T03:24:56;7.80;99.90
16064;DHT22;8136;53.172;8.256;2023-02-18T03:27:26;7.90;99.90
16064;DHT22;8136;53.172;8.256;2023-02-18T03:29:58;7.90;99.90
16064;DHT22;8136;53.172;8.256;2023-02-18T03:32:28;7.90;99.90
16064;DHT22;8136;53.172;8.256;2023-02-18T03:35:01;7.90;99.90
16064;DHT22;8136;53.172;8.256;2023-02-18T03:37:29;7.90;99.90
16064;DHT22;8136;53.172;8.256;2023-02-18T03:40:00;7.90;99.90
16064;DHT22;8136;53.172;8.256;2023-02-18T03:42:27;7.90;99.90
16064;DHT22;8136;53.172;8.256;2023-02-18T03:44:55;7.90;99.90
16064;DHT22;8136;53.172;8.256;2023-02-18T03:47:22;7.90;99.90
16064;DHT22;8136;53.172;8.256;2023-02-18T03:49:49;7.90;99.90
16064;DHT22;8136;53.172;8.256;2023-02-18T03:52:16;7.90;99.90
16064;DHT22;8136;53.172;8.256;2023-02-18T03:54:43;7.90;99.90
16064;DHT22;8136;53.172;8.256;2023-02-18T03:57:11;7.90;99.90
16064;DHT22;8136;53.172;8.256;2023-02-18T03:59:38;8.00;99.90
16064;DHT22;8136;53.172;8.256;2023-02-18T04:02:05;7.90;99.90
16064;DHT22;8136;53.172;8.256;2023-02-18T04:04:32;7.90;99.90
16064;DHT22;8136;53.172;8.256;2023-02-18T04:06:58;7.90;99.90
16064;DHT22;8136;53.172;8.256;2023-02-18T04:09:25;7.90;99.90
16064;DHT22;8136;53.172;8.256;2023-02-18T04:11:52;7.90;99.90
16064;DHT22;8136;53.172;8.256;2023-02-18T04:14:21;7.90;99.90
16064;DHT22;8136;53.172;8.256;2023-02-18T04:16:48;7.90;99.90
16064;DHT22;8136;53.172;8.256;2023-02-18T04:19:14;7.90;99.90
16064;DHT22;8136;53.172;8.256;2023-02-18T04:21:41;8.00;99.90
16064;DHT22;8136;53.172;8.256;2023-02-18T04:24:08;7.90;99.90
16064;DHT22;8136;53.172;8.256;2023-02-18T04:26:35;7.90;99.90
16064;DHT22;8136;53.172;8.256;2023-02-18T04:29:02;7.90;99.90
16064;DHT22;8136;53.172;8.256;2023-02-18T04:31:30;7.90;99.90
16064;DHT22;8136;53.172;8.256;2023-02-18T04:33:57;7.90;99.90
16064;DHT22;8136;53.172;8.256;2023-02-18T04:36:24;7.90;99.90
16064;DHT22;8136;53.172;8.256;2023-02-18T04:38:53;7.90;99.90
16064;DHT22;8136;53.172;8.256;2023-02-18T04:41:20;7.90;99.90
16064;DHT22;8136;53.172;8.256;2023-02-18T04:43:47;7.80;99.90
16064;DHT22;8136;53.172;8.256;2023-02-18T04:46:14;7.90;99.90
16064;DHT22;8136;53.172;8.256;2023-02-18T04:48:45;7.80;99.90
16064;DHT22;8136;53.172;8.256;2023-02-18T04:51:12;7.80;99.90
16064;DHT22;8136;53.172;8.256;2023-02-18T04:53:39;7.80;99.90
16064;DHT22;8136;53.172;8.256;2023-02-18T04:56:06;7.90;99.90
16064;DHT22;8136;53.172;8.256;2023-02-18T04:58:33;7.90;99.90
16064;DHT22;8136;53.172;8.256;2023-02-18T05:01:01;8.00;99.90
16064;DHT22;8136;53.172;8.256;2023-02-18T05:03:28;8.00;99.90
16064;DHT22;8136;53.172;8.256;2023-02-18T05:05:57;8.10;99.90
16064;DHT22;8136;53.172;8.256;2023-02-18T05:08:24;8.10;99.90
16064;DHT22;8136;53.172;8.256;2023-02-18T05:10:51;8.10;99.90
16064;DHT22;8136;53.172;8.256;2023-02-18T05:13:18;8.10;99.90
16064;DHT22;8136;53.172;8.256;2023-02-18T05:15:45;8.20;99.90
16064;DHT22;8136;53.172;8.256;2023-02-18T05:18:12;8.10;99.90
16064;DHT22;8136;53.172;8.256;2023-02-18T05:20:40;8.10;99.90
16064;DHT22;8136;53.172;8.256;2023-02-18T05:23:08;8.10;99.90
16064;DHT22;8136;53.172;8.256;2023-02-18T05:25:35;8.10;99.90
16064;DHT22;8136;53.172;8.256;2023-02-18T05:28:02;8.10;99.90
16064;DHT22;8136;53.172;8.256;2023-02-18T05:30:29;8.10;99.90
16064;DHT22;8136;53.172;8.256;2023-02-18T05:32:56;8.00;99.90
16064;DHT22;8136;53.172;8.256;2023-02-18T05:35:25;8.00;99.90
16064;DHT22;8136;53.172;8.256;2023-02-18T05:37:52;8.00;99.90
16064;DHT22;8136;53.172;8.256;2023-02-18T05:40:21;8.00;99.90
16064;DHT22;8136;53.172;8.256;2023-02-18T05:42:47;8.00;99.90
16064;DHT22;8136;53.172;8.256;2023-02-18T05:45:14;8.00;99.90
16064;DHT22;8136;53.172;8.256;2023-02-18T05:47:41;8.00;99.90
16064;DHT22;8136;53.172;8.256;2023-02-18T05:50:08;8.00;99.90
16064;DHT22;8136;53.172;8.256;2023-02-18T05:52:35;8.00;99.90
16064;DHT22;8136;53.172;8.256;2023-02-18T05:55:02;8.00;99.90
16064;DHT22;8136;53.172;8.256;2023-02-18T05:57:31;8.00;99.90
16064;DHT22;8136;53.172;8.256;2023-02-18T05:59:58;8.00;99.90
16064;DHT22;8136;53.172;8.256;2023-02-18T06:02:25;8.00;99.90
16064;DHT22;8136;53.172;8.256;2023-02-18T06:04:51;8.00;99.90
16064;DHT22;8136;53.172;8.256;2023-02-18T06:07:18;8.00;99.90
16064;DHT22;8136;53.172;8.256;2023-02-18T06:09:45;8.00;99.90
16064;DHT22;8136;53.172;8.256;2023-02-18T06:12:12;8.00;99.90
16064;DHT22;8136;53.172;8.256;2023-02-18T06:14:40;7.90;99.90
16064;DHT22;8136;53.172;8.256;2023-02-18T06:17:08;7.90;99.90
16064;DHT22;8136;53.172;8.256;2023-02-18T06:19:34;7.90;99.90
16064;DHT22;8136;53.172;8.256;2023-02-18T06:22:04;7.90;99.90
16064;DHT22;8136;53.172;8.256;2023-02-18T06:24:31;7.90;99.90
16064;DHT22;8136;53.172;8.256;2023-02-18T06:26:58;7.90;99.90
16064;DHT22;8136;53.172;8.256;2023-02-18T06:29:25;7.90;99.90
16064;DHT22;8136;53.172;8.256;2023-02-18T06:31:55;7.90;99.90
16064;DHT22;8136;53.172;8.256;2023-02-18T06:34:22;7.90;99.90
16064;DHT22;8136;53.172;8.256;2023-02-18T06:36:49;8.00;99.90
16064;DHT22;8136;53.172;8.256;2023-02-18T06:39:16;8.00;99.90
16064;DHT22;8136;53.172;8.256;2023-02-18T06:41:43;8.00;99.90
16064;DHT22;8136;53.172;8.256;2023-02-18T06:44:10;8.00;99.90
16064;DHT22;8136;53.172;8.256;2023-02-18T06:46:37;8.00;99.90
16064;DHT22;8136;53.172;8.256;2023-02-18T06:49:05;8.00;99.90
16064;DHT22;8136;53.172;8.256;2023-02-18T06:51:31;8.00;99.90
16064;DHT22;8136;53.172;8.256;2023-02-18T06:53:58;8.00;99.90
16064;DHT22;8136;53.172;8.256;2023-02-18T06:56:25;8.00;99.90
16064;DHT22;8136;53.172;8.256;2023-02-18T06:58:52;8.00;99.90
16064;DHT22;8136;53.172;8.256;2023-02-18T07:01:19;8.00;99.90
16064;DHT22;8136;53.172;8.256;2023-02-18T07:03:46;8.00;99.90
16064;DHT22;8136;53.172;8.256;2023-02-18T07:06:14;8.00;99.90
16064;DHT22;8136;53.172;8.256;2023-02-18T07:08:41;8.00;99.90
16064;DHT22;8136;53.172;8.256;2023-02-18T07:11:08;8.10;99.90
16064;DHT22;8136;53.172;8.256;2023-02-18T07:13:37;8.10;99.90
16064;DHT22;8136;53.172;8.256;2023-02-18T07:16:05;8.00;99.90
16064;DHT22;8136;53.172;8.256;2023-02-18T07:18:32;8.00;99.90
16064;DHT22;8136;53.172;8.256;2023-02-18T07:20:59;8.10;99.90
16064;DHT22;8136;53.172;8.256;2023-02-18T07:23:27;8.10;99.90
16064;DHT22;8136;53.172;8.256;2023-02-18T07:26:02;8.20;99.90
16064;DHT22;8136;53.172;8.256;2023-02-18T07:28:29;8.20;99.90
16064;DHT22;8136;53.172;8.256;2023-02-18T07:30:56;8.20;99.90
16064;DHT22;8136;53.172;8.256;2023-02-18T07:33:23;8.30;99.90
16064;DHT22;8136;53.172;8.256;2023-02-18T07:35:52;8.40;99.90
16064;DHT22;8136;53.172;8.256;2023-02-18T07:38:20;8.40;99.90
16064;DHT22;8136;53.172;8.256;2023-02-18T07:40:48;8.50;99.90
16064;DHT22;8136;53.172;8.256;2023-02-18T07:43:15;8.50;99.90
16064;DHT22;8136;53.172;8.256;2023-02-18T07:45:42;8.60;99.90
16064;DHT22;8136;53.172;8.256;2023-02-18T07:48:10;8.70;99.90
16064;DHT22;8136;53.172;8.256;2023-02-18T07:50:38;8.70;99.90
16064;DHT22;8136;53.172;8.256;2023-02-18T07:53:09;8.80;99.90
16064;DHT22;8136;53.172;8.256;2023-02-18T07:55:37;8.90;99.90
16064;DHT22;8136;53.172;8.256;2023-02-18T07:58:18;9.00;99.90
16064;DHT22;8136;53.172;8.256;2023-02-18T08:00:46;9.10;99.90
16064;DHT22;8136;53.172;8.256;2023-02-18T08:03:45;9.20;99.90
16064;DHT22;8136;53.172;8.256;2023-02-18T08:06:20;9.30;99.90
16064;DHT22;8136;53.172;8.256;2023-02-18T08:08:47;9.30;99.90
16064;DHT22;8136;53.172;8.256;2023-02-18T08:11:14;9.40;99.90
16064;DHT22;8136;53.172;8.256;2023-02-18T08:13:42;9.50;99.90
16064;DHT22;8136;53.172;8.256;2023-02-18T08:16:09;9.50;99.90
16064;DHT22;8136;53.172;8.256;2023-02-18T08:22:28;9.60;99.90
16064;DHT22;8136;53.172;8.256;2023-02-18T08:42:11;10.00;99.90
16064;DHT22;8136;53.172;8.256;2023-02-18T08:44:38;9.90;99.90
16064;DHT22;8136;53.172;8.256;2023-02-18T08:47:05;10.00;99.90
16064;DHT22;8136;53.172;8.256;2023-02-18T08:49:31;10.00;99.90
16064;DHT22;8136;53.172;8.256;2023-02-18T08:51:58;10.00;99.90
16064;DHT22;8136;53.172;8.256;2023-02-18T08:54:25;10.00;99.90
16064;DHT22;8136;53.172;8.256;2023-02-18T08:56:54;10.00;99.90
16064;DHT22;8136;53.172;8.256;2023-02-18T08:59:24;10.10;99.90
16064;DHT22;8136;53.172;8.256;2023-02-18T09:01:51;10.10;99.90
16064;DHT22;8136;53.172;8.256;2023-02-18T09:04:18;10.20;99.90
16064;DHT22;8136;53.172;8.256;2023-02-18T09:06:45;10.20;99.90
16064;DHT22;8136;53.172;8.256;2023-02-18T09:11:40;10.20;99.90
16064;DHT22;8136;53.172;8.256;2023-02-18T09:14:07;10.20;99.90
16064;DHT22;8136;53.172;8.256;2023-02-18T09:16:37;10.20;99.90
16064;DHT22;8136;53.172;8.256;2023-02-18T09:19:04;10.20;99.90
16064;DHT22;8136;53.172;8.256;2023-02-18T09:21:31;10.20;99.90
16064;DHT22;8136;53.172;8.256;2023-02-18T09:23:59;10.20;99.90
16064;DHT22;8136;53.172;8.256;2023-02-18T09:26:26;10.30;99.90
16064;DHT22;8136;53.172;8.256;2023-02-18T09:28:55;10.30;99.90
16064;DHT22;8136;53.172;8.256;2023-02-18T09:31:23;10.30;99.90
16064;DHT22;8136;53.172;8.256;2023-02-18T09:33:55;10.20;99.90
16064;DHT22;8136;53.172;8.256;2023-02-18T09:36:22;10.30;99.90
16064;DHT22;8136;53.172;8.256;2023-02-18T09:38:52;10.20;99.90
16064;DHT22;8136;53.172;8.256;2023-02-18T09:41:26;10.20;99.90
16064;DHT22;8136;53.172;8.256;2023-02-18T09:43:57;10.20;99.90
16064;DHT22;8136;53.172;8.256;2023-02-18T09:46:28;10.20;99.90
16064;DHT22;8136;53.172;8.256;2023-02-18T09:49:00;10.20;99.90
16064;DHT22;8136;53.172;8.256;2023-02-18T09:51:27;10.20;99.90
16064;DHT22;8136;53.172;8.256;2023-02-18T09:53:55;10.20;99.90
16064;DHT22;8136;53.172;8.256;2023-02-18T09:56:28;10.20;99.90
16064;DHT22;8136;53.172;8.256;2023-02-18T09:58:57;10.10;99.90
16064;DHT22;8136;53.172;8.256;2023-02-18T10:01:28;10.10;99.90
16064;DHT22;8136;53.172;8.256;2023-02-18T10:04:01;10.10;99.90
16064;DHT22;8136;53.172;8.256;2023-02-18T10:06:31;10.10;99.90
16064;DHT22;8136;53.172;8.256;2023-02-18T10:09:00;10.10;99.90
16064;DHT22;8136;53.172;8.256;2023-02-18T10:11:30;10.10;99.90
16064;DHT22;8136;53.172;8.256;2023-02-18T10:13:58;10.00;99.90
16064;DHT22;8136;53.172;8.256;2023-02-18T10:16:27;10.00;99.90
16064;DHT22;8136;53.172;8.256;2023-02-18T10:18:56;10.00;99.90
16064;DHT22;8136;53.172;8.256;2023-02-18T10:21:26;10.00;99.90
16064;DHT22;8136;53.172;8.256;2023-02-18T10:23:59;10.00;99.90
16064;DHT22;8136;53.172;8.256;2023-02-18T10:26:28;10.00;99.90
16064;DHT22;8136;53.172;8.256;2023-02-18T10:28:56;10.00;99.90
16064;DHT22;8136;53.172;8.256;2023-02-18T10:31:29;10.00;99.90
16064;DHT22;8136;53.172;8.256;2023-02-18T10:33:59;10.00;99.90
16064;DHT22;8136;53.172;8.256;2023-02-18T10:36:37;10.00;99.90
16064;DHT22;8136;53.172;8.256;2023-02-18T10:39:30;10.00;99.90
16064;DHT22;8136;53.172;8.256;2023-02-18T10:42:07;10.00;99.90
16064;DHT22;8136;53.172;8.256;2023-02-18T10:44:43;10.00;99.90
16064;DHT22;8136;53.172;8.256;2023-02-18T10:47:21;10.00;99.90
16064;DHT22;8136;53.172;8.256;2023-02-18T10:49:56;10.00;99.90
16064;DHT22;8136;53.172;8.256;2023-02-18T10:52:39;10.00;99.90
16064;DHT22;8136;53.172;8.256;2023-02-18T10:55:16;10.00;99.90
16064;DHT22;8136;53.172;8.256;2023-02-18T10:57:48;10.00;99.90
16064;DHT22;8136;53.172;8.256;2023-02-18T11:00:18;10.00;99.90
16064;DHT22;8136;53.172;8.256;2023-02-18T11:02:45;10.00;99.90
16064;DHT22;8136;53.172;8.256;2023-02-18T11:05:21;10.00;99.90
16064;DHT22;8136;53.172;8.256;2023-02-18T11:07:53;10.00;99.90
16064;DHT22;8136;53.172;8.256;2023-02-18T11:10:24;10.00;99.90
16064;DHT22;8136;53.172;8.256;2023-02-18T11:12:55;10.00;99.90
16064;DHT22;8136;53.172;8.256;2023-02-18T11:15:24;10.00;99.90
16064;DHT22;8136;53.172;8.256;2023-02-18T11:17:53;10.00;99.90
16064;DHT22;8136;53.172;8.256;2023-02-18T11:20:24;10.00;99.90
16064;DHT22;8136;53.172;8.256;2023-02-18T11:22:56;10.00;99.90
16064;DHT22;8136;53.172;8.256;2023-02-18T11:25:25;10.00;99.90
16064;DHT22;8136;53.172;8.256;2023-02-18T11:27:55;10.00;99.90
16064;DHT22;8136;53.172;8.256;2023-02-18T11:30:25;10.00;99.90
16064;DHT22;8136;53.172;8.256;2023-02-18T11:32:59;10.00;99.90
16064;DHT22;8136;53.172;8.256;2023-02-18T11:35:28;10.00;99.90
16064;DHT22;8136;53.172;8.256;2023-02-18T11:37:59;10.00;99.90
16064;DHT22;8136;53.172;8.256;2023-02-18T11:40:30;10.00;99.90
16064;DHT22;8136;53.172;8.256;2023-02-18T11:43:06;10.00;99.90
16064;DHT22;8136;53.172;8.256;2023-02-18T11:45:35;10.10;99.90
16064;DHT22;8136;53.172;8.256;2023-02-18T11:48:07;10.00;99.90
16064;DHT22;8136;53.172;8.256;2023-02-18T11:50:34;10.10;99.90
16064;DHT22;8136;53.172;8.256;2023-02-18T11:53:28;10.10;99.90
16064;DHT22;8136;53.172;8.256;2023-02-18T11:55:58;10.10;99.90
16064;DHT22;8136;53.172;8.256;2023-02-18T11:58:26;10.10;99.90
16064;DHT22;8136;53.172;8.256;2023-02-18T12:00:56;10.10;99.90
16064;DHT22;8136;53.172;8.256;2023-02-18T12:03:29;10.10;99.90
16064;DHT22;8136;53.172;8.256;2023-02-18T12:06:00;10.10;99.90
16064;DHT22;8136;53.172;8.256;2023-02-18T12:08:31;10.10;99.90
16064;DHT22;8136;53.172;8.256;2023-02-18T12:11:01;10.10;99.90
16064;DHT22;8136;53.172;8.256;2023-02-18T12:13:32;10.10;99.90
16064;DHT22;8136;53.172;8.256;2023-02-18T12:16:14;10.10;99.90
16064;DHT22;8136;53.172;8.256;2023-02-18T12:19:05;10.10;99.90
16064;DHT22;8136;53.172;8.256;2023-02-18T12:21:44;10.10;99.90
16064;DHT22;8136;53.172;8.256;2023-02-18T12:24:24;10.10;99.90
16064;DHT22;8136;53.172;8.256;2023-02-18T12:27:02;10.10;99.90
16064;DHT22;8136;53.172;8.256;2023-02-18T12:29:55;10.10;99.90
16064;DHT22;8136;53.172;8.256;2023-02-18T12:32:34;10.10;99.90
16064;DHT22;8136;53.172;8.256;2023-02-18T12:35:25;10.10;99.90
16064;DHT22;8136;53.172;8.256;2023-02-18T12:38:15;10.10;99.90
16064;DHT22;8136;53.172;8.256;2023-02-18T12:41:03;10.10;99.90
16064;DHT22;8136;53.172;8.256;2023-02-18T12:43:43;10.20;99.90
16064;DHT22;8136;53.172;8.256;2023-02-18T12:49:32;10.20;99.90
16064;DHT22;8136;53.172;8.256;2023-02-18T12:52:18;10.20;99.90
16064;DHT22;8136;53.172;8.256;2023-02-18T12:55:15;10.20;99.90
16064;DHT22;8136;53.172;8.256;2023-02-18T12:57:54;10.20;99.90
16064;DHT22;8136;53.172;8.256;2023-02-18T13:00:44;10.20;99.90
16064;DHT22;8136;53.172;8.256;2023-02-18T13:03:36;10.20;99.90
16064;DHT22;8136;53.172;8.256;2023-02-18T13:06:15;10.20;99.90
16064;DHT22;8136;53.172;8.256;2023-02-18T13:08:49;10.30;99.90
16064;DHT22;8136;53.172;8.256;2023-02-18T13:11:34;10.30;99.90
16064;DHT22;8136;53.172;8.256;2023-02-18T13:14:10;10.30;99.90
16064;DHT22;8136;53.172;8.256;2023-02-18T13:16:41;10.30;99.90
16064;DHT22;8136;53.172;8.256;2023-02-18T13:19:17;10.30;99.90
16064;DHT22;8136;53.172;8.256;2023-02-18T13:21:47;10.30;99.90
16064;DHT22;8136;53.172;8.256;2023-02-18T13:24:21;10.30;99.90
16064;DHT22;8136;53.172;8.256;2023-02-18T13:26:53;10.30;99.90
16064;DHT22;8136;53.172;8.256;2023-02-18T13:29:26;10.30;99.90
16064;DHT22;8136;53.172;8.256;2023-02-18T13:32:03;10.30;99.90
16064;DHT22;8136;53.172;8.256;2023-02-18T13:34:40;10.20;99.90
16064;DHT22;8136;53.172;8.256;2023-02-18T13:37:16;10.30;99.90
16064;DHT22;8136;53.172;8.256;2023-02-18T13:39:49;10.20;99.90
16064;DHT22;8136;53.172;8.256;2023-02-18T13:42:26;10.30;99.90
16064;DHT22;8136;53.172;8.256;2023-02-18T13:45:26;10.30;99.90
16064;DHT22;8136;53.172;8.256;2023-02-18T13:47:57;10.30;99.90
16064;DHT22;8136;53.172;8.256;2023-02-18T13:50:30;10.30;99.90
16064;DHT22;8136;53.172;8.256;2023-02-18T13:53:19;10.30;99.90
16064;DHT22;8136;53.172;8.256;2023-02-18T13:55:52;10.30;99.90
16064;DHT22;8136;53.172;8.256;2023-02-18T13:58:23;10.30;99.90
16064;DHT22;8136;53.172;8.256;2023-02-18T14:00:58;10.30;99.90
16064;DHT22;8136;53.172;8.256;2023-02-18T14:03:35;10.30;99.90
16064;DHT22;8136;53.172;8.256;2023-02-18T14:06:13;10.30;99.90
16064;DHT22;8136;53.172;8.256;2023-02-18T14:08:40;10.30;99.90
16064;DHT22;8136;53.172;8.256;2023-02-18T14:11:45;10.30;99.90
16064;DHT22;8136;53.172;8.256;2023-02-18T14:20:40;10.40;99.90
16064;DHT22;8136;53.172;8.256;2023-02-18T14:23:39;10.70;99.90
16064;DHT22;8136;53.172;8.256;2023-02-18T14:26:10;10.70;99.90
16064;DHT22;8136;53.172;8.256;2023-02-18T14:28:48;10.70;99.90
16064;DHT22;8136;53.172;8.256;2023-02-18T14:31:28;10.60;99.90
16064;DHT22;8136;53.172;8.256;2023-02-18T14:40:23;10.50;99.90
16064;DHT22;8136;53.172;8.256;2023-02-18T14:42:57;10.50;99.90
16064;DHT22;8136;53.172;8.256;2023-02-18T14:45:35;10.50;99.90
16064;DHT22;8136;53.172;8.256;2023-02-18T14:48:23;10.50;99.90
16064;DHT22;8136;53.172;8.256;2023-02-18T14:50:56;10.40;99.90
16064;DHT22;8136;53.172;8.256;2023-02-18T14:53:25;10.40;99.90
16064;DHT22;8136;53.172;8.256;2023-02-18T14:55:58;10.40;99.90
16064;DHT22;8136;53.172;8.256;2023-02-18T14:58:30;10.40;99.90
16064;DHT22;8136;53.172;8.256;2023-02-18T15:00:58;10.50;99.90
16064;DHT22;8136;53.172;8.256;2023-02-18T15:03:31;10.40;99.90
16064;DHT22;8136;53.172;8.256;2023-02-18T15:05:58;10.50;99.90
16064;DHT22;8136;53.172;8.256;2023-02-18T15:08:25;10.40;99.90
16064;DHT22;8136;53.172;8.256;2023-02-18T15:10:57;10.40;99.90
16064;DHT22;8136;53.172;8.256;2023-02-18T15:13:28;10.50;99.90
16064;DHT22;8136;53.172;8.256;2023-02-18T15:15:57;10.50;99.90
16064;DHT22;8136;53.172;8.256;2023-02-18T15:18:30;10.50;99.90
16064;DHT22;8136;53.172;8.256;2023-02-18T15:21:00;10.40;99.90
16064;DHT22;8136;53.172;8.256;2023-02-18T15:23:28;10.40;99.90
16064;DHT22;8136;53.172;8.256;2023-02-18T15:25:57;10.40;99.90
16064;DHT22;8136;53.172;8.256;2023-02-18T15:28:25;10.30;99.90
16064;DHT22;8136;53.172;8.256;2023-02-18T15:30:55;10.30;99.90
16064;DHT22;8136;53.172;8.256;2023-02-18T15:33:23;10.30;99.90
16064;DHT22;8136;53.172;8.256;2023-02-18T15:35:50;10.30;99.90
16064;DHT22;8136;53.172;8.256;2023-02-18T15:38:18;10.30;99.90
16064;DHT22;8136;53.172;8.256;2023-02-18T15:40:48;10.40;99.90
16064;DHT22;8136;53.172;8.256;2023-02-18T15:43:20;10.40;99.90
16064;DHT22;8136;53.172;8.256;2023-02-18T15:45:48;10.40;99.90
16064;DHT22;8136;53.172;8.256;2023-02-18T15:48:27;10.30;99.90
16064;DHT22;8136;53.172;8.256;2023-02-18T15:50:56;10.30;99.90
16064;DHT22;8136;53.172;8.256;2023-02-18T15:53:24;10.30;99.90
16064;DHT22;8136;53.172;8.256;2023-02-18T15:55:52;10.30;99.90
16064;DHT22;8136;53.172;8.256;2023-02-18T15:58:25;10.30;99.90
16064;DHT22;8136;53.172;8.256;2023-02-18T16:00:55;10.30;99.90
16064;DHT22;8136;53.172;8.256;2023-02-18T16:03:24;10.30;99.90
16064;DHT22;8136;53.172;8.256;2023-02-18T16:06:08;10.30;99.90
16064;DHT22;8136;53.172;8.256;2023-02-18T16:08:35;10.30;99.90
16064;DHT22;8136;53.172;8.256;2023-02-18T16:11:05;10.30;99.90
16064;DHT22;8136;53.172;8.256;2023-02-18T16:13:36;10.30;99.90
16064;DHT22;8136;53.172;8.256;2023-02-18T16:16:03;10.20;99.90
16064;DHT22;8136;53.172;8.256;2023-02-18T16:18:37;10.20;99.90
16064;DHT22;8136;53.172;8.256;2023-02-18T16:21:21;10.20;99.90
16064;DHT22;8136;53.172;8.256;2023-02-18T16:23:51;10.10;99.90
16064;DHT22;8136;53.172;8.256;2023-02-18T16:26:27;10.10;99.90
16064;DHT22;8136;53.172;8.256;2023-02-18T16:29:03;10.10;99.90
16064;DHT22;8136;53.172;8.256;2023-02-18T16:31:32;10.10;99.90
16064;DHT22;8136;53.172;8.256;2023-02-18T16:33:59;10.00;99.90
16064;DHT22;8136;53.172;8.256;2023-02-18T16:36:26;10.00;99.90
16064;DHT22;8136;53.172;8.256;2023-02-18T16:38:52;10.00;99.90
16064;DHT22;8136;53.172;8.256;2023-02-18T16:41:20;10.00;99.90
16064;DHT22;8136;53.172;8.256;2023-02-18T16:43:47;9.90;99.90
16064;DHT22;8136;53.172;8.256;2023-02-18T16:46:18;9.80;99.90
16064;DHT22;8136;53.172;8.256;2023-02-18T16:48:49;9.60;99.90
16064;DHT22;8136;53.172;8.256;2023-02-18T16:51:21;9.60;99.90
16064;DHT22;8136;53.172;8.256;2023-02-18T16:53:48;9.50;99.90
16064;DHT22;8136;53.172;8.256;2023-02-18T16:56:17;9.40;99.90
16064;DHT22;8136;53.172;8.256;2023-02-18T16:58:44;9.40;99.90
16064;DHT22;8136;53.172;8.256;2023-02-18T17:01:21;9.30;99.90
16064;DHT22;8136;53.172;8.256;2023-02-18T17:03:48;9.40;99.90
16064;DHT22;8136;53.172;8.256;2023-02-18T17:06:16;9.30;99.90
16064;DHT22;8136;53.172;8.256;2023-02-18T17:08:43;9.40;99.90